Time;durP1;ratioP1;P1;durP2;ratioP2;P2;SDS_P1;SDS_P2;PMS_P1;PMS_P2;Temp;Humidity;BMP_temperature;BMP_pressure;BME280_temperature;BME280_humidity;BME280_pressure;Samples;Min_cycle;Max_cycle;Signal;HPM_P1;HPM_P2
2024/01/13 00:01:09;;;;;;;19.47;10.97;;;;;;;;;;4993642;28;20244;-82
2024/01/13 00:03:36;;;;;;;20.37;10.97;;;;;;;;;;4993966;28;20227;-82
2024/01/13 00:06:03;;;;;;;16.63;10.67;;;;;;;;;;4993203;28;20650;-82
2024/01/13 00:08:32;;;;;;;20.20;11.50;;;;;;;;;;4993553;28;20588;-82
2024/01/13 00:10:59;;;;;;;14.73;9.03;;;;;;;;;;4993363;28;20285;-82
2024/01/13 00:13:26;;;;;;;16.37;10.53;;;;;;;;;;4994076;28;20221;-82
2024/01/13 00:15:53;;;;;;;22.87;10.90;;;;;;;;;;5000162;28;20236;-82
2024/01/13 00:18:21;;;;;;;16.27;7.87;;;;;;;;;;5013017;28;20205;-82
2024/01/13 00:20:48;;;;;;;12.43;8.93;;;;;;;;;;5012063;28;20239;-81
2024/01/13 00:23:15;;;;;;;15.30;10.40;;;;;;;;;;5012838;28;20232;-82
2024/01/13 00:25:43;;;;;;;19.33;10.63;;;;;;;;;;5001358;28;20239;-82
2024/01/13 00:28:10;;;;;;;16.33;8.80;;;;;;;;;;4993048;28;20209;-82
2024/01/13 00:30:37;;;;;;;14.13;9.87;;;;;;;;;;4992490;28;20244;-82
2024/01/13 00:33:04;;;;;;;11.90;8.63;;;;;;;;;;4992875;28;20212;-82
2024/01/13 00:35:31;;;;;;;18.70;10.63;;;;;;;;;;4992518;28;20644;-82
2024/01/13 00:37:58;;;;;;;17.27;10.70;;;;;;;;;;4992955;28;20632;-82
2024/01/13 00:40:25;;;;;;;14.63;9.17;;;;;;;;;;4992066;28;20241;-84
2024/01/13 00:42:54;;;;;;;15.47;9.27;;;;;;;;;;4993102;28;20203;-82
2024/01/13 00:45:21;;;;;;;10.33;7.50;;;;;;;;;;4991891;28;20292;-82
2024/01/13 00:47:48;;;;;;;13.93;9.90;;;;;;;;;;4992655;28;20258;-82
2024/01/13 00:50:15;;;;;;;18.00;10.60;;;;;;;;;;4992226;28;20571;-82
2024/01/13 00:52:42;;;;;;;14.00;9.03;;;;;;;;;;4993092;28;20209;-82
2024/01/13 00:55:09;;;;;;;7.50;6.30;;;;;;;;;;4992455;28;20214;-81
2024/01/13 00:57:36;;;;;;;15.50;9.80;;;;;;;;;;4992703;28;20210;-82
2024/01/13 01:00:05;;;;;;;18.27;10.40;;;;;;;;;;4992031;28;20633;-82
2024/01/13 01:02:32;;;;;;;18.13;10.50;;;;;;;;;;4992757;28;20217;-81
2024/01/13 01:05:00;;;;;;;17.10;11.37;;;;;;;;;;4992394;28;20208;-82
2024/01/13 01:07:27;;;;;;;18.70;10.60;;;;;;;;;;4991706;28;20229;-81
2024/01/13 01:09:54;;;;;;;18.20;10.93;;;;;;;;;;4992359;28;20234;-82
2024/01/13 01:12:21;;;;;;;16.03;9.83;;;;;;;;;;4992093;28;20245;-82
2024/01/13 01:14:48;;;;;;;13.23;9.50;;;;;;;;;;4992367;28;20693;-82
2024/01/13 01:17:16;;;;;;;17.43;10.67;;;;;;;;;;4991683;28;20232;-81
2024/01/13 01:19:43;;;;;;;17.67;9.17;;;;;;;;;;4992304;28;20247;-82
2024/01/13 01:22:10;;;;;;;15.77;10.13;;;;;;;;;;4991790;28;20242;-81
2024/01/13 01:24:37;;;;;;;19.33;10.53;;;;;;;;;;4992632;28;20223;-81
2024/01/13 01:27:04;;;;;;;18.97;12.37;;;;;;;;;;4991519;28;20725;-82
2024/01/13 01:29:31;;;;;;;18.93;11.17;;;;;;;;;;4992088;28;20331;-82
2024/01/13 01:31:58;;;;;;;21.77;11.67;;;;;;;;;;4991797;28;20708;-82
2024/01/13 01:34:27;;;;;;;18.20;11.07;;;;;;;;;;4990349;28;20245;-81
2024/01/13 01:36:54;;;;;;;15.00;9.83;;;;;;;;;;4990373;28;20246;-82
2024/01/13 01:39:21;;;;;;;20.37;11.10;;;;;;;;;;4996163;28;20237;-82
2024/01/13 01:41:48;;;;;;;15.40;11.17;;;;;;;;;;4995285;28;20658;-82
2024/01/13 01:44:15;;;;;;;19.40;10.07;;;;;;;;;;4996442;28;20219;-81
2024/01/13 01:46:43;;;;;;;16.93;10.87;;;;;;;;;;4995811;28;20225;-81
2024/01/13 01:49:12;;;;;;;22.30;11.17;;;;;;;;;;4996313;28;20210;-82
2024/01/13 01:51:40;;;;;;;16.53;11.23;;;;;;;;;;4995654;28;20239;-82
2024/01/13 01:54:07;;;;;;;20.80;11.87;;;;;;;;;;4995899;28;20216;-81
2024/01/13 01:56:35;;;;;;;18.37;10.83;;;;;;;;;;4995368;28;20242;-82
2024/01/13 01:59:02;;;;;;;18.50;12.13;;;;;;;;;;4995886;28;20209;-82
2024/01/13 02:01:30;;;;;;;14.73;9.53;;;;;;;;;;4994402;28;20240;-82
2024/01/13 02:03:58;;;;;;;17.77;10.83;;;;;;;;;;4995451;28;20382;-82
2024/01/13 02:06:25;;;;;;;19.33;10.93;;;;;;;;;;4994860;28;20599;-82
2024/01/13 02:08:54;;;;;;;20.50;11.40;;;;;;;;;;4996270;28;20216;-82
2024/01/13 02:11:21;;;;;;;21.00;12.17;;;;;;;;;;4996162;28;20238;-82
2024/01/13 02:13:48;;;;;;;25.67;11.77;;;;;;;;;;4996002;28;20210;-82
2024/01/13 02:16:16;;;;;;;18.53;11.40;;;;;;;;;;4995176;28;20233;-82
2024/01/13 02:18:43;;;;;;;18.80;10.87;;;;;;;;;;4995341;28;20577;-82
2024/01/13 02:21:10;;;;;;;17.33;9.90;;;;;;;;;;4994821;28;20240;-82
2024/01/13 02:23:39;;;;;;;14.23;10.13;;;;;;;;;;4995544;28;20235;-82
2024/01/13 02:26:06;;;;;;;17.17;10.37;;;;;;;;;;4994572;28;20232;-82
2024/01/13 02:28:33;;;;;;;20.17;11.43;;;;;;;;;;4995614;28;20272;-82
2024/01/13 02:31:00;;;;;;;13.40;9.73;;;;;;;;;;4994669;28;20233;-82
2024/01/13 02:33:27;;;;;;;18.77;12.20;;;;;;;;;;4995214;28;20671;-82
2024/01/13 02:35:54;;;;;;;16.63;10.10;;;;;;;;;;4994687;28;20240;-82
2024/01/13 02:38:21;;;;;;;22.03;10.83;;;;;;;;;;4995080;28;20214;-82
2024/01/13 02:40:50;;;;;;;20.70;11.07;;;;;;;;;;4994128;28;20726;-82
2024/01/13 02:43:17;;;;;;;20.77;11.10;;;;;;;;;;4991333;28;20232;-82
2024/01/13 02:45:44;;;;;;;19.40;11.40;;;;;;;;;;4994655;28;20240;-82
2024/01/13 02:48:16;;;;;;;21.23;10.37;;;;;;;;;;4992708;28;20570;-82
2024/01/13 02:50:45;;;;;;;14.23;10.53;;;;;;;;;;4994274;28;20247;-82
2024/01/13 02:53:12;;;;;;;19.10;12.03;;;;;;;;;;4995071;28;20221;-82
2024/01/13 02:55:40;;;;;;;15.50;10.13;;;;;;;;;;4994554;28;20245;-82
2024/01/13 02:58:08;;;;;;;22.00;11.43;;;;;;;;;;4994877;28;20245;-82
2024/01/13 03:00:35;;;;;;;18.97;10.67;;;;;;;;;;4994435;28;20243;-83
2024/01/13 03:03:02;;;;;;;18.20;11.13;;;;;;;;;;4995297;28;20264;-82
2024/01/13 03:05:29;;;;;;;16.13;9.93;;;;;;;;;;4998938;28;20582;-82
2024/01/13 03:07:56;;;;;;;16.83;10.27;;;;;;;;;;4995003;28;20214;-82
2024/01/13 03:10:23;;;;;;;20.87;12.27;;;;;;;;;;4994089;28;20285;-82
2024/01/13 03:12:50;;;;;;;17.43;11.80;;;;;;;;;;4994452;28;20217;-81
2024/01/13 03:15:18;;;;;;;18.73;10.47;;;;;;;;;;4994165;28;20304;-83
2024/01/13 03:17:45;;;;;;;19.27;9.47;;;;;;;;;;4994286;28;20807;-82
2024/01/13 03:20:13;;;;;;;18.23;10.53;;;;;;;;;;4993830;28;20224;-82
2024/01/13 03:22:40;;;;;;;19.53;11.43;;;;;;;;;;4994472;28;20213;-82
2024/01/13 03:25:08;;;;;;;14.57;9.70;;;;;;;;;;4993861;28;20704;-82
2024/01/13 03:27:35;;;;;;;19.43;10.93;;;;;;;;;;4994295;28;20209;-82
2024/01/13 03:30:02;;;;;;;17.03;10.37;;;;;;;;;;4994160;28;20634;-82
2024/01/13 03:32:30;;;;;;;16.13;9.53;;;;;;;;;;4993703;28;20280;-82
2024/01/13 03:34:57;;;;;;;15.30;9.10;;;;;;;;;;4994108;28;20213;-82
2024/01/13 03:37:25;;;;;;;18.57;11.07;;;;;;;;;;4993311;28;20240;-82
2024/01/13 03:39:52;;;;;;;15.73;10.10;;;;;;;;;;4993770;28;20742;-82
2024/01/13 03:42:19;;;;;;;13.20;9.30;;;;;;;;;;4992851;28;20287;-82
2024/01/13 03:44:46;;;;;;;16.10;10.00;;;;;;;;;;4994120;28;20203;-82
2024/01/13 03:47:14;;;;;;;15.87;10.23;;;;;;;;;;4993137;28;20339;-82
2024/01/13 03:49:42;;;;;;;17.83;10.67;;;;;;;;;;4994008;28;20239;-82
2024/01/13 03:52:09;;;;;;;17.87;10.43;;;;;;;;;;4993554;28;20224;-81
2024/01/13 03:54:36;;;;;;;14.67;10.33;;;;;;;;;;4993559;28;20203;-82
2024/01/13 03:57:03;;;;;;;19.90;9.90;;;;;;;;;;4990689;28;20237;-82
2024/01/13 03:59:30;;;;;;;14.33;8.90;;;;;;;;;;4991014;28;20567;-82
2024/01/13 04:01:57;;;;;;;17.23;11.13;;;;;;;;;;4992077;28;20242;-82
2024/01/13 04:04:24;;;;;;;16.87;10.40;;;;;;;;;;4993494;28;20205;-82
2024/01/13 04:06:53;;;;;;;18.80;9.97;;;;;;;;;;4992737;28;20296;-82
2024/01/13 04:09:20;;;;;;;17.33;10.77;;;;;;;;;;4993208;28;20209;-82
2024/01/13 04:11:47;;;;;;;18.33;11.77;;;;;;;;;;4992605;28;20237;-82
2024/01/13 04:14:14;;;;;;;18.43;11.20;;;;;;;;;;4993568;28;20235;-82
2024/01/13 04:16:41;;;;;;;19.13;11.40;;;;;;;;;;4992628;28;20238;-82
2024/01/13 04:19:08;;;;;;;22.17;10.97;;;;;;;;;;4993784;28;20213;-82
2024/01/13 04:21:35;;;;;;;18.47;11.17;;;;;;;;;;4992777;28;20240;-84
2024/01/13 04:24:04;;;;;;;21.50;12.60;;;;;;;;;;4993098;28;20258;-81
2024/01/13 04:26:31;;;;;;;16.33;9.33;;;;;;;;;;4992475;28;20247;-82
2024/01/13 04:28:58;;;;;;;20.20;11.47;;;;;;;;;;4992969;28;20217;-81
2024/01/13 04:31:25;;;;;;;16.87;12.23;;;;;;;;;;4992321;28;20240;-82
2024/01/13 04:33:53;;;;;;;20.33;12.00;;;;;;;;;;4992369;28;20579;-82
2024/01/13 04:36:20;;;;;;;15.93;10.43;;;;;;;;;;4992195;28;20714;-82
2024/01/13 04:38:47;;;;;;;23.53;12.80;;;;;;;;;;4993000;28;20259;-83
2024/01/13 04:41:16;;;;;;;25.87;12.93;;;;;;;;;;4991923;28;20239;-81
2024/01/13 04:43:43;;;;;;;23.77;11.97;;;;;;;;;;4993178;28;20217;-82
2024/01/13 04:46:10;;;;;;;23.93;13.73;;;;;;;;;;4992309;28;20238;-83
2024/01/13 04:48:39;;;;;;;23.50;12.33;;;;;;;;;;4993039;28;20222;-82
2024/01/13 04:51:06;;;;;;;23.77;13.47;;;;;;;;;;4992130;28;20289;-82
2024/01/13 04:53:33;;;;;;;25.60;15.50;;;;;;;;;;4993149;28;20217;-82
2024/01/13 04:56:00;;;;;;;22.27;12.50;;;;;;;;;;4992291;28;20249;-82
2024/01/13 04:58:28;;;;;;;28.13;13.80;;;;;;;;;;4992735;28;20210;-83
2024/01/13 05:00:56;;;;;;;25.07;15.10;;;;;;;;;;4992355;28;20242;-80
2024/01/13 05:03:23;;;;;;;22.00;12.77;;;;;;;;;;4992812;28;20211;-79
2024/01/13 05:05:50;;;;;;;22.07;12.77;;;;;;;;;;4992019;28;20267;-81
2024/01/13 05:08:17;;;;;;;25.03;13.30;;;;;;;;;;4992531;28;20213;-80
2024/01/13 05:10:44;;;;;;;23.27;14.07;;;;;;;;;;4988937;28;20249;-80
2024/01/13 05:13:10;;;;;;;20.30;11.63;;;;;;;;;;4991840;28;20727;-80
2024/01/13 05:15:38;;;;;;;24.73;13.83;;;;;;;;;;4991923;28;20231;-78
2024/01/13 05:18:06;;;;;;;27.83;14.53;;;;;;;;;;4992072;28;20213;-77
2024/01/13 05:20:33;;;;;;;23.37;13.03;;;;;;;;;;4991999;28;20245;-80
2024/01/13 05:23:00;;;;;;;26.47;13.23;;;;;;;;;;4992475;28;20247;-80
2024/01/13 05:25:27;;;;;;;19.50;10.17;;;;;;;;;;4992533;28;20287;-81
2024/01/13 05:27:54;;;;;;;20.53;10.93;;;;;;;;;;4992517;28;20181;-81
2024/01/13 05:30:21;;;;;;;27.00;13.90;;;;;;;;;;4991998;28;20233;-79
2024/01/13 05:32:50;;;;;;;24.23;13.17;;;;;;;;;;4991463;28;20903;-80
2024/01/13 05:35:17;;;;;;;15.33;11.47;;;;;;;;;;4990661;28;20218;-80
2024/01/13 05:37:44;;;;;;;16.00;10.27;;;;;;;;;;4992050;28;20201;-82
2024/01/13 05:40:11;;;;;;;22.13;13.23;;;;;;;;;;4991700;28;20237;-85
2024/01/13 05:42:38;;;;;;;20.10;10.93;;;;;;;;;;4991868;28;20750;-80
2024/01/13 05:45:07;;;;;;;23.97;13.67;;;;;;;;;;4991831;28;20235;-82
2024/01/13 05:47:35;;;;;;;16.87;9.67;;;;;;;;;;4992033;28;20267;-82
2024/01/13 05:50:03;;;;;;;14.77;8.60;;;;;;;;;;4991851;28;20237;-80
2024/01/13 05:52:30;;;;;;;23.10;12.27;;;;;;;;;;4990918;28;20296;-79
2024/01/13 05:54:58;;;;;;;24.50;12.53;;;;;;;;;;4991581;28;20284;-79
2024/01/13 05:57:25;;;;;;;22.33;10.60;;;;;;;;;;4990996;28;20288;-78
2024/01/13 05:59:52;;;;;;;16.47;10.60;;;;;;;;;;4991780;28;20620;-79
2024/01/13 06:02:19;;;;;;;14.77;8.97;;;;;;;;;;4991171;28;20241;-78
2024/01/13 06:04:47;;;;;;;13.67;9.93;;;;;;;;;;4991987;28;20561;-79
2024/01/13 06:07:15;;;;;;;15.10;10.67;;;;;;;;;;4991180;28;20234;-79
2024/01/13 06:09:42;;;;;;;20.27;9.97;;;;;;;;;;4991833;28;20295;-79
2024/01/13 06:12:09;;;;;;;16.23;10.00;;;;;;;;;;4991353;28;20579;-79
2024/01/13 06:14:36;;;;;;;18.37;10.70;;;;;;;;;;4992008;28;20209;-79
2024/01/13 06:17:03;;;;;;;11.50;8.27;;;;;;;;;;4991067;28;20617;-79
2024/01/13 06:19:30;;;;;;;16.77;9.47;;;;;;;;;;4991538;28;20244;-79
2024/01/13 06:21:57;;;;;;;21.87;11.37;;;;;;;;;;4991277;28;20242;-79
2024/01/13 06:24:26;;;;;;;19.00;11.53;;;;;;;;;;4993069;28;20580;-79
2024/01/13 06:26:53;;;;;;;19.93;11.67;;;;;;;;;;4994582;28;20731;-79
2024/01/13 06:29:20;;;;;;;16.50;9.27;;;;;;;;;;4995153;28;20218;-79
2024/01/13 06:31:47;;;;;;;17.33;10.83;;;;;;;;;;4994641;28;20587;-79
2024/01/13 06:34:14;;;;;;;11.00;7.80;;;;;;;;;;4995055;28;20208;-79
2024/01/13 06:36:41;;;;;;;24.03;11.13;;;;;;;;;;4994271;28;20245;-79
2024/01/13 06:39:08;;;;;;;12.03;8.50;;;;;;;;;;4994710;28;20708;-79
2024/01/13 06:41:36;;;;;;;19.60;10.83;;;;;;;;;;4994268;28;20259;-79
2024/01/13 06:44:03;;;;;;;16.30;9.40;;;;;;;;;;4995056;28;20218;-79
2024/01/13 06:46:30;;;;;;;16.20;8.67;;;;;;;;;;4994145;28;21051;-79
2024/01/13 06:48:57;;;;;;;16.20;10.00;;;;;;;;;;4994884;28;20270;-79
2024/01/13 06:51:24;;;;;;;13.97;9.40;;;;;;;;;;4994089;28;20734;-79
2024/01/13 06:53:51;;;;;;;18.63;11.00;;;;;;;;;;4994648;28;20712;-79
2024/01/13 06:56:18;;;;;;;18.63;11.03;;;;;;;;;;4993943;28;20248;-79
2024/01/13 06:58:47;;;;;;;20.33;12.03;;;;;;;;;;4994631;28;20357;-79
2024/01/13 07:01:14;;;;;;;15.27;10.23;;;;;;;;;;4994166;28;20244;-79
2024/01/13 07:03:43;;;;;;;18.43;6.10;;;;;;;;;;4994320;28;20217;-79
2024/01/13 07:06:10;;;;;;;17.17;9.57;;;;;;;;;;4993820;28;20246;-78
2024/01/13 07:08:37;;;;;;;15.47;10.63;;;;;;;;;;4994376;28;20201;-78
2024/01/13 07:11:12;;;;;;;17.13;11.33;;;;;;;;;;4993721;28;20611;-78
2024/01/13 07:13:39;;;;;;;17.87;10.77;;;;;;;;;;4994277;28;20683;-78
2024/01/13 07:16:07;;;;;;;20.47;11.50;;;;;;;;;;4993812;28;20270;-78
2024/01/13 07:18:34;;;;;;;14.03;9.77;;;;;;;;;;4994224;28;20288;-78
2024/01/13 07:21:01;;;;;;;16.93;10.33;;;;;;;;;;4993818;28;20250;-78
2024/01/13 07:23:29;;;;;;;16.80;10.00;;;;;;;;;;4993780;28;20238;-78
2024/01/13 07:25:56;;;;;;;15.33;10.37;;;;;;;;;;4993697;28;20266;-78
2024/01/13 07:28:27;;;;;;;14.87;10.50;;;;;;;;;;4993772;28;20210;-78
2024/01/13 07:30:54;;;;;;;15.00;9.23;;;;;;;;;;4993660;28;20244;-78
2024/01/13 07:33:22;;;;;;;16.67;10.63;;;;;;;;;;4994046;28;20206;-78
2024/01/13 07:35:49;;;;;;;12.43;9.07;;;;;;;;;;4993516;28;20239;-78
2024/01/13 07:38:16;;;;;;;14.87;9.40;;;;;;;;;;4993506;28;20702;-78
2024/01/13 07:40:43;;;;;;;22.53;12.63;;;;;;;;;;4993189;28;20248;-78
2024/01/13 07:43:10;;;;;;;13.10;8.43;;;;;;;;;;4993663;28;20241;-78
2024/01/13 07:45:38;;;;;;;12.27;6.50;;;;;;;;;;4993380;28;20238;-78
2024/01/13 07:48:05;;;;;;;20.00;11.97;;;;;;;;;;4993547;28;20217;-78
2024/01/13 07:50:34;;;;;;;14.80;10.43;;;;;;;;;;4993324;28;20243;-78
2024/01/13 07:53:01;;;;;;;15.07;9.70;;;;;;;;;;4993523;28;20728;-78
2024/01/13 07:55:28;;;;;;;17.80;10.77;;;;;;;;;;4993002;28;20234;-77
2024/01/13 07:57:55;;;;;;;16.47;10.87;;;;;;;;;;4993293;28;20205;-78
2024/01/13 08:00:23;;;;;;;17.03;9.43;;;;;;;;;;4992336;28;20728;-78
2024/01/13 08:02:50;;;;;;;13.50;8.97;;;;;;;;;;4993219;28;20243;-78
2024/01/13 08:05:17;;;;;;;18.80;10.57;;;;;;;;;;4992616;28;20210;-78
2024/01/13 08:07:46;;;;;;;15.73;9.60;;;;;;;;;;4993124;28;20305;-78
2024/01/13 08:10:13;;;;;;;12.67;9.17;;;;;;;;;;4992735;28;20230;-78
2024/01/13 08:12:40;;;;;;;13.57;9.57;;;;;;;;;;4993261;28;20528;-78
2024/01/13 08:15:08;;;;;;;14.87;10.60;;;;;;;;;;4992709;28;20219;-78
2024/01/13 08:17:35;;;;;;;14.47;9.70;;;;;;;;;;4992969;28;20616;-78
2024/01/13 08:20:04;;;;;;;16.00;9.57;;;;;;;;;;4992971;28;20222;-79
2024/01/13 08:22:31;;;;;;;16.20;11.43;;;;;;;;;;4992920;28;20235;-78
2024/01/13 08:25:00;;;;;;;11.30;7.97;;;;;;;;;;4993103;28;20233;-78
2024/01/13 08:27:27;;;;;;;15.73;9.67;;;;;;;;;;4992408;28;20230;-78
2024/01/13 08:29:54;;;;;;;15.73;10.43;;;;;;;;;;4992751;28;20224;-78
2024/01/13 08:32:21;;;;;;;15.77;11.20;;;;;;;;;;4992291;28;20231;-78
2024/01/13 08:34:48;;;;;;;13.13;8.40;;;;;;;;;;4993025;28;20277;-78
2024/01/13 08:37:15;;;;;;;7.50;6.73;;;;;;;;;;4992323;28;20242;-78
2024/01/13 08:39:42;;;;;;;13.57;8.87;;;;;;;;;;4992823;28;20242;-78
2024/01/13 08:42:10;;;;;;;8.87;8.03;;;;;;;;;;4992009;28;20249;-79
2024/01/13 08:44:38;;;;;;;10.97;6.57;;;;;;;;;;4992853;28;20213;-77
2024/01/13 08:47:05;;;;;;;14.77;9.67;;;;;;;;;;4991496;28;20234;-76
2024/01/13 08:49:32;;;;;;;6.83;6.33;;;;;;;;;;4992459;28;20234;-79
2024/01/13 08:51:59;;;;;;;10.87;7.43;;;;;;;;;;4992417;28;20237;-77
2024/01/13 08:54:26;;;;;;;9.10;5.47;;;;;;;;;;4992762;28;20218;-76
2024/01/13 08:56:53;;;;;;;14.23;9.10;;;;;;;;;;4991827;28;20243;-76
2024/01/13 08:59:21;;;;;;;14.50;9.33;;;;;;;;;;4992332;28;20210;-76
2024/01/13 09:01:48;;;;;;;12.77;10.00;;;;;;;;;;4992007;28;20239;-76
2024/01/13 09:04:15;;;;;;;14.80;9.10;;;;;;;;;;4992253;28;20218;-77
2024/01/13 09:06:42;;;;;;;13.13;9.67;;;;;;;;;;4991615;28;20235;-77
2024/01/13 09:09:10;;;;;;;16.80;10.17;;;;;;;;;;4992658;28;20274;-76
2024/01/13 09:11:37;;;;;;;17.30;9.73;;;;;;;;;;4991983;28;20243;-76
2024/01/13 09:14:04;;;;;;;15.83;9.27;;;;;;;;;;4992229;28;20210;-77
2024/01/13 09:16:33;;;;;;;15.03;9.07;;;;;;;;;;4991576;28;20239;-76
2024/01/13 09:19:00;;;;;;;12.10;8.00;;;;;;;;;;4992199;28;20210;-76
2024/01/13 09:21:27;;;;;;;4.67;4.37;;;;;;;;;;4991825;28;20239;-79
2024/01/13 09:23:54;;;;;;;14.83;10.13;;;;;;;;;;4992310;28;20249;-77
2024/01/13 09:26:21;;;;;;;17.23;11.00;;;;;;;;;;4991406;28;20578;-77
2024/01/13 09:28:49;;;;;;;12.20;8.67;;;;;;;;;;4991958;28;20215;-77
2024/01/13 09:31:16;;;;;;;13.13;9.43;;;;;;;;;;4991415;28;20293;-76
2024/01/13 09:33:45;;;;;;;12.33;8.43;;;;;;;;;;4991785;28;20218;-76
2024/01/13 09:36:13;;;;;;;12.43;8.17;;;;;;;;;;4991271;28;20242;-77
2024/01/13 09:38:40;;;;;;;15.10;9.53;;;;;;;;;;4992254;28;20211;-77
2024/01/13 09:41:07;;;;;;;11.73;8.27;;;;;;;;;;4991258;28;20240;-77
2024/01/13 09:43:41;;;;;;;13.43;9.60;;;;;;;;;;4991917;28;20700;-77
2024/01/13 09:46:08;;;;;;;18.37;9.53;;;;;;;;;;4991493;28;20249;-77
2024/01/13 09:48:35;;;;;;;14.33;9.80;;;;;;;;;;4991717;28;20266;-77
2024/01/13 09:51:04;;;;;;;11.30;8.63;;;;;;;;;;4991277;28;20242;-77
2024/01/13 09:53:32;;;;;;;18.50;10.20;;;;;;;;;;4992144;28;20213;-77
2024/01/13 09:56:01;;;;;;;17.93;9.83;;;;;;;;;;4991360;28;20326;-76
2024/01/13 09:58:28;;;;;;;14.47;9.03;;;;;;;;;;4991745;28;20215;-77
2024/01/13 10:00:57;;;;;;;6.07;5.20;;;;;;;;;;4995301;28;20301;-77
2024/01/13 10:03:24;;;;;;;8.83;5.93;;;;;;;;;;4995678;28;20230;-77
2024/01/13 10:05:51;;;;;;;14.20;10.10;;;;;;;;;;4995041;28;20237;-77
2024/01/13 10:08:21;;;;;;;17.43;10.73;;;;;;;;;;4995297;28;20216;-77
2024/01/13 10:10:48;;;;;;;5.80;5.30;;;;;;;;;;4994817;28;20326;-77
2024/01/13 10:13:15;;;;;;;14.47;8.57;;;;;;;;;;4995463;28;20626;-76
2024/01/13 10:15:42;;;;;;;9.93;7.80;;;;;;;;;;4994977;28;20238;-77
2024/01/13 10:18:09;;;;;;;17.20;9.53;;;;;;;;;;4994895;28;20683;-77
2024/01/13 10:20:36;;;;;;;18.20;10.23;;;;;;;;;;4994696;28;20506;-77
2024/01/13 10:23:04;;;;;;;14.67;9.30;;;;;;;;;;4995260;28;20231;-77
2024/01/13 10:25:32;;;;;;;8.13;7.20;;;;;;;;;;4994693;28;20673;-77
2024/01/13 10:27:59;;;;;;;16.30;10.10;;;;;;;;;;4995135;28;20211;-77
2024/01/13 10:30:26;;;;;;;12.33;9.60;;;;;;;;;;4994725;28;20242;-77
2024/01/13 10:32:54;;;;;;;14.70;9.40;;;;;;;;;;4994962;28;20203;-77
2024/01/13 10:35:22;;;;;;;12.80;9.33;;;;;;;;;;4994631;28;20246;-77
2024/01/13 10:37:49;;;;;;;11.60;8.97;;;;;;;;;;4994666;28;20226;-76
2024/01/13 10:40:16;;;;;;;13.07;8.67;;;;;;;;;;4994345;28;20713;-76
2024/01/13 10:42:47;;;;;;;12.97;8.57;;;;;;;;;;4994687;28;20227;-78
2024/01/13 10:45:16;;;;;;;16.27;10.50;;;;;;;;;;4994645;28;20213;-78
2024/01/13 10:47:45;;;;;;;12.90;8.60;;;;;;;;;;4994686;28;20212;-78
2024/01/13 10:50:12;;;;;;;21.17;12.83;;;;;;;;;;4994270;28;20228;-79
2024/01/13 10:52:44;;;;;;;16.67;8.67;;;;;;;;;;4994738;28;20202;-79
2024/01/13 10:55:12;;;;;;;12.27;7.87;;;;;;;;;;4994180;28;20257;-79
2024/01/13 10:57:39;;;;;;;8.87;7.53;;;;;;;;;;4994414;28;20269;-78
2024/01/13 11:00:10;;;;;;;11.03;8.10;;;;;;;;;;4994016;28;20736;-79
2024/01/13 11:02:38;;;;;;;13.93;8.50;;;;;;;;;;4994643;28;20571;-79
2024/01/13 11:05:06;;;;;;;13.67;9.30;;;;;;;;;;4993941;28;20745;-78
2024/01/13 11:07:33;;;;;;;13.67;8.50;;;;;;;;;;4994237;28;20211;-79
2024/01/13 11:10:01;;;;;;;10.53;7.23;;;;;;;;;;4993935;28;20226;-78
2024/01/13 11:12:30;;;;;;;12.67;8.40;;;;;;;;;;5014063;28;20249;-78
2024/01/13 11:14:59;;;;;;;13.83;8.53;;;;;;;;;;5014016;28;20214;-79
2024/01/13 11:17:28;;;;;;;10.43;9.03;;;;;;;;;;4993842;28;20584;-78
2024/01/13 11:19:55;;;;;;;12.73;8.90;;;;;;;;;;4994051;28;20231;-78
2024/01/13 11:22:32;;;;;;;11.63;8.50;;;;;;;;;;4993660;28;20619;-76
2024/01/13 11:24:59;;;;;;;12.97;7.93;;;;;;;;;;4994061;28;20298;-76
2024/01/13 11:27:26;;;;;;;10.27;7.47;;;;;;;;;;4993462;28;20263;-76
2024/01/13 11:29:55;;;;;;;5.20;4.77;;;;;;;;;;4993896;28;20227;-76
2024/01/13 11:32:22;;;;;;;7.97;6.97;;;;;;;;;;4993450;28;20238;-76
2024/01/13 11:34:50;;;;;;;10.23;5.80;;;;;;;;;;4994116;28;20203;-75
2024/01/13 11:37:18;;;;;;;8.40;5.57;;;;;;;;;;4993203;28;20234;-76
2024/01/13 11:39:45;;;;;;;21.27;10.03;;;;;;;;;;4993790;28;20231;-76
2024/01/13 11:42:12;;;;;;;12.97;8.60;;;;;;;;;;4993267;28;20271;-76
2024/01/13 11:44:44;;;;;;;15.70;9.17;;;;;;;;;;4993614;28;20324;-76
2024/01/13 11:47:11;;;;;;;7.43;6.50;;;;;;;;;;4992947;28;20237;-76
2024/01/13 11:49:39;;;;;;;11.97;7.27;;;;;;;;;;4993707;28;20231;-76
2024/01/13 11:52:07;;;;;;;12.03;7.27;;;;;;;;;;4993106;28;20242;-76
2024/01/13 11:54:35;;;;;;;12.20;8.20;;;;;;;;;;4993408;28;20205;-76
2024/01/13 11:57:04;;;;;;;11.83;7.53;;;;;;;;;;4992745;28;20242;-76
2024/01/13 11:59:31;;;;;;;13.40;6.97;;;;;;;;;;4993228;28;20231;-76
2024/01/13 12:01:58;;;;;;;13.97;7.00;;;;;;;;;;4992803;28;20234;-76
2024/01/13 12:04:26;;;;;;;7.97;5.43;;;;;;;;;;4993185;28;20238;-76
2024/01/13 12:06:54;;;;;;;13.57;8.00;;;;;;;;;;4992591;28;20245;-76
2024/01/13 12:09:24;;;;;;;10.90;8.70;;;;;;;;;;4993327;28;20231;-76
2024/01/13 12:11:54;;;;;;;9.17;7.77;;;;;;;;;;4992642;28;20325;-76
2024/01/13 12:14:25;;;;;;;11.40;7.63;;;;;;;;;;4993077;28;20213;-76
2024/01/13 12:16:52;;;;;;;9.97;6.93;;;;;;;;;;4992490;28;20316;-76
2024/01/13 12:19:20;;;;;;;13.33;7.43;;;;;;;;;;4993122;28;20199;-76
2024/01/13 12:21:47;;;;;;;10.23;6.73;;;;;;;;;;4991821;28;20263;-76
2024/01/13 12:24:14;;;;;;;6.80;6.10;;;;;;;;;;4993031;28;20237;-76
2024/01/13 12:26:43;;;;;;;12.40;8.33;;;;;;;;;;4992417;28;20249;-76
2024/01/13 12:29:10;;;;;;;10.70;7.83;;;;;;;;;;4993050;28;20215;-76
2024/01/13 12:31:39;;;;;;;13.60;8.17;;;;;;;;;;4992348;28;20243;-76
2024/01/13 12:34:08;;;;;;;9.50;7.37;;;;;;;;;;4992781;28;20239;-76
2024/01/13 12:36:36;;;;;;;11.67;7.73;;;;;;;;;;4992070;28;20631;-76
2024/01/13 12:39:03;;;;;;;10.50;7.80;;;;;;;;;;4992950;28;20207;-76
2024/01/13 12:41:30;;;;;;;11.47;6.87;;;;;;;;;;4992207;28;20325;-76
2024/01/13 12:43:59;;;;;;;9.50;6.83;;;;;;;;;;4992549;28;20242;-77
2024/01/13 12:46:26;;;;;;;9.53;7.23;;;;;;;;;;4991983;28;20239;-78
2024/01/13 12:48:54;;;;;;;8.90;5.77;;;;;;;;;;4992627;28;20226;-79
2024/01/13 12:51:21;;;;;;;8.33;7.10;;;;;;;;;;4992265;28;20607;-78
2024/01/13 12:53:49;;;;;;;7.70;6.40;;;;;;;;;;4992523;28;20245;-79
2024/01/13 12:56:17;;;;;;;8.33;5.67;;;;;;;;;;4991943;28;20239;-78
2024/01/13 12:58:44;;;;;;;11.70;7.17;;;;;;;;;;4992689;28;20300;-78
2024/01/13 13:01:13;;;;;;;13.07;8.03;;;;;;;;;;4992078;28;20271;-78
2024/01/13 13:03:42;;;;;;;13.03;7.70;;;;;;;;;;4992378;28;20639;-78
2024/01/13 13:06:09;;;;;;;7.90;5.90;;;;;;;;;;4991809;28;20235;-78
2024/01/13 13:08:36;;;;;;;16.77;8.60;;;;;;;;;;4992323;28;20218;-78
2024/01/13 13:11:03;;;;;;;8.40;6.30;;;;;;;;;;4991967;28;20249;-78
2024/01/13 13:13:30;;;;;;;9.87;6.00;;;;;;;;;;4992241;28;20210;-78
2024/01/13 13:15:57;;;;;;;12.83;7.77;;;;;;;;;;4991809;28;20727;-78
2024/01/13 13:18:26;;;;;;;4.10;3.73;;;;;;;;;;4992208;28;20214;-77
2024/01/13 13:20:53;;;;;;;11.07;6.83;;;;;;;;;;4991666;28;20246;-78
2024/01/13 13:23:20;;;;;;;12.90;8.10;;;;;;;;;;4992009;28;20238;-78
2024/01/13 13:25:47;;;;;;;5.70;5.20;;;;;;;;;;4991835;28;20261;-78
2024/01/13 13:28:16;;;;;;;12.03;6.10;;;;;;;;;;4991959;28;20304;-78
2024/01/13 13:30:43;;;;;;;11.97;6.90;;;;;;;;;;4991514;28;20264;-78
2024/01/13 13:33:11;;;;;;;13.73;6.43;;;;;;;;;;4993495;28;20292;-78
2024/01/13 13:35:39;;;;;;;7.87;6.13;;;;;;;;;;4995695;28;20626;-78
2024/01/13 13:38:06;;;;;;;6.60;5.60;;;;;;;;;;4996091;28;20310;-78
2024/01/13 13:40:34;;;;;;;11.33;5.90;;;;;;;;;;4995461;28;20242;-78
2024/01/13 13:43:01;;;;;;;7.07;4.77;;;;;;;;;;4995980;28;20206;-78
2024/01/13 13:45:28;;;;;;;5.70;4.70;;;;;;;;;;4995620;28;20242;-78
2024/01/13 13:47:56;;;;;;;7.77;5.47;;;;;;;;;;4995671;28;20620;-78
2024/01/13 13:50:23;;;;;;;5.23;4.73;;;;;;;;;;4995221;28;20724;-78
2024/01/13 13:52:51;;;;;;;5.87;4.70;;;;;;;;;;4995886;28;20218;-78
2024/01/13 13:55:18;;;;;;;5.30;4.87;;;;;;;;;;4995621;28;20238;-77
2024/01/13 13:57:45;;;;;;;13.17;8.40;;;;;;;;;;4995638;28;20290;-78
2024/01/13 14:00:13;;;;;;;14.13;7.07;;;;;;;;;;4995180;28;20233;-77
2024/01/13 14:02:40;;;;;;;7.63;5.17;;;;;;;;;;4995646;28;20215;-78
2024/01/13 14:05:07;;;;;;;4.20;3.73;;;;;;;;;;4995420;28;20244;-78
2024/01/13 14:07:34;;;;;;;4.93;4.53;;;;;;;;;;4995455;28;20207;-78
2024/01/13 14:10:03;;;;;;;6.03;5.27;;;;;;;;;;4995302;28;20227;-78
2024/01/13 14:12:30;;;;;;;5.73;5.00;;;;;;;;;;5014850;28;20226;-77
2024/01/13 14:14:57;;;;;;;5.70;4.90;;;;;;;;;;5015031;28;20577;-78
2024/01/13 14:17:24;;;;;;;5.63;5.03;;;;;;;;;;5014359;28;20238;-77
2024/01/13 14:19:51;;;;;;;5.80;5.13;;;;;;;;;;5014738;28;20646;-78
2024/01/13 14:22:18;;;;;;;5.57;4.70;;;;;;;;;;5014434;28;20288;-77
2024/01/13 14:24:45;;;;;;;5.30;4.33;;;;;;;;;;5014941;28;20233;-78
2024/01/13 14:27:13;;;;;;;9.07;5.57;;;;;;;;;;5014139;28;20305;-77